Aeroporto :
LOGIN :

Iscrizione | Disclaimer

   EN    FR    IT 

 










Sommario :    VFR   VFR Marginale   IFR   IFR Intensivo   IFR Molto Intensivo
Visibilità : 
Base nubi : 
>= 8 km
>= 3000ft
5 / 8 km
1000 / 3000 ft
1500m / 5 km
500 / 1000 ft
800 / 1500m
200 / 500 ft
< 800m
< 200 ft
Simboli :   Temporali  Nebbia  Neve Forte  Precipitazioni Forti  Vento > 20 kt
SIGMETs :   Varie  Temporali  Ghiacco  Turbolenza  Onda orograficha  Ceneri Vulcaniche







- Altitudine del aeroporto : 135 ft
- Codice IATA : EDI
- Carte del aeroporto


EGPH - Edinburgh

ULTIMO METAR :
  • 210420Z 00000KT CAVOK 07/06 Q1021

METARs OBSOLETI :
  • 210350Z 36002KT CAVOK 07/07 Q1021
  • 210320Z 04001KT CAVOK 06/06 Q1022
  • 210250Z 27001KT CAVOK 07/07 Q1022
  • 210220Z VRB01KT CAVOK 07/07 Q1023
  • 210150Z 00000KT CAVOK 08/07 Q1023

TAF TAF EGPH
Valido dal 21 a 00 ore il 22 a 00 ore UTC


202302Z 2100/2124 VRB03KT CAVOK
TEMPO 2100/2109 7000
BECMG 2109/2112 20010KT
BECMG 2118/2121 VRB03KT
TEMPO 2118/2121 7000
ATIS : +44 131 339 2823
Nessun NOTAM noto per questo aeroporto.



MetMap, La meteo Aeronautica in un colpo d'occhio ! - Copyright ORBIFLY Dicembre 2007 - Disclaimer

ORBIFLY MET'MAP TEAM :

Programmazione e sviluppo : Alexandra Zaïnal
Concezione e sviluppo : Baudouin d'Aumeries
Co-Programmazione e sviluppo : Marc-Olivier Méhu
Supporto tecnico e logistico : Manuel Goepfert
Aiuto per la traduzione : Arnaldo La Scala

Contatto : metmap@orbifly.com




FONTI E CREDITI :

   NOAA